createdAt,value
2019-02-21T00:03:29.499Z,18.03
2019-02-21T00:07:35.601Z,17.63
2019-02-21T00:11:41.696Z,17.73
2019-02-21T00:15:46.714Z,19.23
2019-02-21T00:19:51.718Z,17.20
2019-02-21T00:23:56.755Z,18.70
2019-02-21T00:28:01.760Z,18.17
2019-02-21T00:32:06.743Z,17.70
2019-02-21T00:36:11.776Z,18.03
2019-02-21T00:40:16.803Z,18.47
2019-02-21T00:44:21.888Z,18.33
2019-02-21T00:48:26.972Z,18.03
2019-02-21T00:52:31.972Z,18.60
2019-02-21T00:56:37.348Z,17.70
2019-02-21T01:00:46.530Z,18.47
2019-02-21T01:04:49.164Z,18.97
2019-02-21T01:08:54.176Z,18.43
2019-02-21T01:12:59.332Z,20.53
2019-02-21T01:17:04.387Z,20.57
2019-02-21T01:21:09.460Z,19.20
2019-02-21T01:25:14.535Z,20.17
2019-02-21T01:29:19.544Z,20.10
2019-02-21T01:33:24.557Z,19.97
2019-02-21T01:37:29.669Z,19.57
2019-02-21T01:41:34.659Z,23.20
2019-02-21T01:45:39.666Z,21.00
2019-02-21T01:49:44.689Z,21.30
2019-02-21T01:53:49.691Z,21.00
2019-02-21T01:57:54.690Z,22.03
2019-02-21T02:02:00.662Z,21.43
2019-02-21T02:06:05.668Z,23.03
2019-02-21T02:10:11.069Z,21.80
2019-02-21T02:14:16.146Z,21.70
2019-02-21T02:18:21.203Z,23.10
2019-02-21T02:22:26.285Z,21.57
2019-02-21T02:26:31.296Z,21.33
2019-02-21T02:30:36.445Z,21.90
2019-02-21T02:34:41.522Z,21.57
2019-02-21T02:38:46.532Z,22.07
2019-02-21T02:42:51.527Z,23.53
2019-02-21T02:46:56.533Z,21.83
2019-02-21T02:51:01.580Z,22.67
2019-02-21T02:55:06.782Z,18.57
2019-02-21T02:59:11.886Z,21.27
2019-02-21T03:03:16.955Z,19.73
2019-02-21T03:07:21.984Z,23.27
2019-02-21T03:11:27.001Z,20.50
2019-02-21T03:15:32.080Z,22.10
2019-02-21T03:19:37.108Z,23.33
2019-02-21T03:23:42.132Z,22.50
2019-02-21T03:27:47.141Z,22.77
2019-02-21T03:31:55.158Z,22.70
2019-02-21T03:35:58.966Z,22.83
2019-02-21T03:40:05.424Z,20.67
2019-02-21T03:44:10.424Z,21.23
2019-02-21T03:48:15.415Z,24.47
2019-02-21T03:52:20.429Z,23.33
2019-02-21T03:56:25.500Z,20.60
2019-02-21T04:00:30.512Z,21.80
2019-02-21T04:04:35.854Z,21.50
2019-02-21T04:08:40.937Z,20.63
2019-02-21T04:12:46.129Z,21.43
2019-02-21T04:16:51.239Z,21.70
2019-02-21T04:20:56.284Z,22.20
2019-02-21T04:25:01.294Z,21.00
2019-02-21T04:29:06.348Z,21.37
2019-02-21T04:33:11.355Z,19.53
2019-02-21T04:37:16.373Z,20.93
2019-02-21T04:41:21.405Z,22.70
2019-02-21T04:45:26.416Z,21.87
2019-02-21T04:49:31.484Z,20.93
2019-02-21T04:53:37.560Z,22.17
2019-02-21T04:57:42.645Z,20.87
2019-02-21T05:01:47.658Z,21.57
2019-02-21T05:05:52.670Z,18.93
2019-02-21T05:09:58.540Z,20.30
2019-02-21T05:14:03.777Z,19.70
2019-02-21T05:18:09.877Z,21.03
2019-02-21T05:22:14.884Z,18.40
2019-02-21T05:26:21.584Z,20.50
2019-02-21T05:30:27.162Z,20.37
2019-02-21T05:34:33.779Z,19.47
2019-02-21T05:38:42.907Z,20.63
2019-02-21T05:42:55.303Z,20.07
2019-02-21T05:47:14.005Z,18.90
2019-02-21T05:51:20.644Z,20.63
2019-02-21T05:55:33.298Z,19.23
2019-02-21T05:59:39.925Z,18.90
2019-02-21T06:04:03.063Z,20.63
2019-02-21T06:08:12.632Z,19.87
2019-02-21T06:12:37.507Z,21.17
2019-02-21T06:17:01.955Z,20.67
2019-02-21T06:21:08.611Z,20.80
2019-02-21T06:25:18.384Z,21.07
2019-02-21T06:29:25.000Z,21.80
2019-02-21T06:33:30.015Z,21.63
2019-02-21T06:37:37.687Z,21.50
2019-02-21T06:41:42.808Z,20.67
2019-02-21T06:45:48.938Z,22.53
2019-02-21T06:49:53.927Z,20.03
2019-02-21T06:53:59.000Z,22.07
2019-02-21T06:58:03.969Z,22.63
2019-02-21T07:02:08.979Z,21.70
2019-02-21T07:06:13.996Z,23.33
2019-02-21T07:10:19.059Z,23.27
2019-02-21T07:14:24.073Z,22.43
2019-02-21T07:18:29.135Z,22.53
2019-02-21T07:22:35.078Z,22.77
2019-02-21T07:26:40.080Z,22.13
2019-02-21T07:30:45.376Z,21.57
2019-02-21T07:34:50.391Z,24.07
2019-02-21T07:39:08.451Z,23.10
2019-02-21T07:43:03.033Z,25.60
2019-02-21T07:47:08.033Z,23.20
2019-02-21T07:51:13.599Z,22.83
2019-02-21T07:55:19.731Z,26.43
2019-02-21T07:59:24.736Z,24.70
2019-02-21T08:03:35.845Z,22.53
2019-02-21T08:07:36.665Z,20.80
2019-02-21T08:11:41.969Z,22.90
2019-02-21T08:15:47.028Z,22.37
2019-02-21T08:19:52.758Z,21.73
2019-02-21T08:23:59.259Z,24.80
2019-02-21T08:28:04.400Z,24.15
2019-02-21T08:32:10.903Z,24.53
2019-02-21T08:36:16.203Z,22.37
2019-02-21T08:40:21.497Z,24.07
2019-02-21T08:44:28.806Z,22.73
2019-02-21T08:48:33.737Z,22.30
2019-02-21T08:52:39.044Z,23.33
2019-02-21T08:56:44.435Z,23.27
2019-02-21T09:00:49.713Z,22.47
2019-02-21T09:04:55.019Z,21.90
2019-02-21T09:09:01.485Z,22.90
2019-02-21T09:13:08.409Z,22.97
2019-02-21T09:17:13.726Z,21.73
2019-02-21T09:21:18.996Z,21.93
2019-02-21T09:25:24.372Z,22.57
2019-02-21T09:29:29.665Z,23.73
2019-02-21T09:33:37.116Z,23.93
2019-02-21T09:37:42.080Z,24.23
2019-02-21T09:41:47.414Z,23.97
2019-02-21T09:45:52.685Z,22.23
2019-02-21T09:49:57.984Z,23.47
2019-02-21T09:54:03.279Z,22.37
2019-02-21T09:58:08.592Z,22.60
2019-02-21T10:02:13.881Z,23.20
2019-02-21T10:06:19.194Z,23.53
2019-02-21T10:10:24.572Z,22.90
2019-02-21T10:14:29.920Z,22.17
2019-02-21T10:18:35.232Z,21.03
2019-02-21T10:22:40.542Z,22.67
2019-02-21T10:26:45.814Z,21.97
2019-02-21T10:30:51.131Z,21.63
2019-02-21T10:34:56.480Z,21.13
2019-02-21T10:39:01.848Z,23.53
2019-02-21T10:43:08.754Z,21.07
2019-02-21T10:47:14.049Z,21.27
2019-02-21T10:51:19.329Z,34.93
2019-02-21T10:55:24.679Z,19.77
2019-02-21T10:59:29.998Z,22.17
2019-02-21T11:03:36.276Z,21.20
2019-02-21T11:07:41.565Z,20.43
2019-02-21T11:11:47.039Z,20.97
2019-02-21T11:15:52.341Z,20.93
2019-02-21T11:19:57.644Z,20.47
2019-02-21T11:24:02.940Z,19.60
2019-02-21T11:28:08.313Z,18.30
2019-02-21T11:32:13.692Z,18.60
2019-02-21T11:36:18.987Z,19.03
2019-02-21T11:40:24.652Z,18.00
2019-02-21T11:44:30.004Z,17.07
2019-02-21T11:48:35.385Z,17.03
2019-02-21T11:52:40.687Z,16.43
2019-02-21T11:56:46.132Z,16.43
2019-02-21T12:00:51.448Z,15.37
2019-02-21T12:04:56.745Z,14.80
2019-02-21T12:09:02.043Z,15.20
2019-02-21T12:13:08.992Z,16.20
2019-02-21T12:17:14.278Z,15.50
2019-02-21T12:21:19.555Z,15.20
2019-02-21T12:25:25.258Z,15.83
2019-02-21T12:29:30.534Z,17.40
2019-02-21T12:33:35.840Z,16.37
2019-02-21T12:37:41.125Z,15.43
2019-02-21T12:41:46.441Z,16.30
2019-02-21T12:45:53.280Z,15.80
2019-02-21T12:49:58.567Z,16.37
2019-02-21T12:54:03.871Z,17.67
2019-02-21T12:58:09.233Z,17.60
2019-02-21T13:02:14.527Z,17.30
2019-02-21T13:06:19.825Z,17.87
2019-02-21T13:10:26.207Z,19.37
2019-02-21T13:14:31.512Z,19.30
2019-02-21T13:18:36.828Z,19.60
2019-02-21T13:22:42.271Z,18.67
2019-02-21T13:26:47.617Z,18.87
2019-02-21T13:30:52.929Z,17.60
2019-02-21T13:34:58.217Z,19.67
2019-02-21T13:39:06.921Z,18.30
2019-02-21T13:43:13.156Z,19.70
2019-02-21T13:47:18.457Z,19.40
2019-02-21T13:51:23.747Z,18.60
2019-02-21T13:55:30.833Z,18.37
2019-02-21T13:59:36.045Z,18.27
2019-02-21T14:03:41.332Z,18.57
2019-02-21T14:07:46.624Z,18.23
2019-02-21T14:11:51.932Z,17.97
2019-02-21T14:15:57.253Z,16.73
2019-02-21T14:20:02.547Z,17.30
2019-02-21T14:24:07.844Z,18.33
2019-02-21T14:28:13.115Z,19.20
2019-02-21T14:32:20.330Z,19.33
2019-02-21T14:36:25.425Z,18.43
2019-02-21T14:40:30.713Z,17.37
2019-02-21T14:44:36.040Z,16.10
2019-02-21T14:48:41.319Z,16.50
2019-02-21T14:52:46.635Z,14.93
2019-02-21T14:56:51.982Z,15.67
2019-02-21T15:00:57.259Z,15.17
2019-02-21T15:05:03.992Z,14.67
2019-02-21T15:09:09.605Z,14.90
2019-02-21T15:13:15.064Z,15.47
2019-02-21T15:17:20.368Z,15.97
2019-02-21T15:21:25.662Z,17.07
2019-02-21T15:25:30.951Z,15.60
2019-02-21T15:29:39.077Z,14.97
2019-02-21T15:33:43.129Z,16.80
2019-02-21T15:37:49.572Z,16.27
2019-02-21T15:41:54.890Z,16.37
2019-02-21T15:46:00.256Z,16.70
2019-02-21T15:50:08.848Z,16.43
2019-02-21T15:54:14.191Z,17.70
2019-02-21T15:58:19.487Z,16.57
2019-02-21T16:02:24.792Z,16.17
2019-02-21T16:06:30.089Z,16.77
2019-02-21T16:10:35.517Z,16.90
2019-02-21T16:14:40.851Z,16.50
2019-02-21T16:18:46.161Z,16.30
2019-02-21T16:22:51.451Z,16.00
2019-02-21T16:26:56.852Z,15.37
2019-02-21T16:31:02.192Z,17.60
2019-02-21T16:35:10.517Z,16.10
2019-02-21T16:39:15.783Z,15.93
2019-02-21T16:43:21.063Z,17.23
2019-02-21T16:47:26.357Z,16.03
2019-02-21T16:51:31.708Z,16.53
2019-02-21T16:55:37.000Z,16.83
2019-02-21T16:59:43.372Z,16.13
2019-02-21T17:03:48.780Z,15.97
2019-02-21T17:07:55.845Z,20.23
2019-02-21T17:12:01.128Z,16.30
2019-02-21T17:16:06.425Z,15.97
2019-02-21T17:20:14.613Z,15.87
2019-02-21T17:24:19.914Z,15.83
2019-02-21T17:28:25.205Z,15.37
2019-02-21T17:32:31.027Z,16.33
2019-02-21T17:36:37.747Z,15.87
2019-02-21T17:40:43.753Z,17.40
2019-02-21T17:44:49.117Z,19.70
2019-02-21T17:48:54.563Z,20.23
2019-02-21T17:53:00.007Z,21.20
2019-02-21T17:57:05.438Z,24.03
2019-02-21T18:01:10.731Z,24.07
2019-02-21T18:05:16.276Z,26.47
2019-02-21T18:09:22.697Z,26.47
2019-02-21T18:13:28.056Z,26.20
2019-02-21T18:17:33.412Z,26.57
2019-02-21T18:21:38.895Z,29.73
2019-02-21T18:25:50.239Z,27.50
2019-02-21T18:29:55.276Z,29.33
2019-02-21T18:34:00.460Z,32.63
2019-02-21T18:38:05.999Z,44.25
2019-02-21T18:42:11.012Z,33.57
2019-02-21T18:46:16.308Z,33.70
2019-02-21T18:50:21.300Z,35.10
2019-02-21T18:54:26.327Z,34.93
2019-02-21T18:58:31.317Z,36.10
2019-02-21T19:02:36.344Z,27.63
2019-02-21T19:06:41.382Z,33.43
2019-02-21T19:10:46.385Z,36.53
2019-02-21T19:14:51.393Z,36.33
2019-02-21T19:18:56.405Z,35.97
2019-02-21T19:23:01.411Z,35.30
2019-02-21T19:27:07.596Z,36.60
2019-02-21T19:31:13.472Z,33.17
2019-02-21T19:35:18.941Z,33.87
2019-02-21T19:39:24.017Z,35.10
2019-02-21T19:43:29.928Z,34.37
2019-02-21T19:47:35.901Z,36.57
2019-02-21T19:51:41.368Z,31.47
2019-02-21T19:55:48.252Z,36.70
2019-02-21T19:59:53.371Z,34.90
2019-02-21T20:03:58.454Z,36.17
2019-02-21T20:08:08.585Z,34.50
2019-02-21T20:12:10.259Z,34.57
2019-02-21T20:16:15.328Z,37.27
2019-02-21T20:20:27.591Z,33.70
2019-02-21T20:24:32.580Z,33.87
2019-02-21T20:28:37.596Z,34.10
2019-02-21T20:32:42.779Z,36.30
2019-02-21T20:36:51.116Z,38.53
2019-02-21T20:40:54.437Z,36.80
2019-02-21T20:44:59.894Z,36.90
2019-02-21T20:49:05.271Z,36.93
2019-02-21T20:53:10.340Z,38.58
2019-02-21T20:57:15.624Z,38.93
2019-02-21T21:01:21.031Z,40.53
2019-02-21T21:05:26.396Z,42.17
2019-02-21T21:09:31.688Z,43.73
2019-02-21T21:13:37.000Z,46.20
2019-02-21T21:17:42.209Z,48.27
2019-02-21T21:21:47.491Z,49.03
2019-02-21T21:25:52.488Z,49.67
2019-02-21T21:29:57.779Z,49.00
2019-02-21T21:34:02.789Z,52.23
2019-02-21T21:38:07.872Z,55.53
2019-02-21T21:42:13.048Z,58.53
2019-02-21T21:46:18.047Z,56.93
2019-02-21T21:50:23.539Z,54.20
2019-02-21T21:54:28.591Z,57.13
2019-02-21T21:58:33.603Z,62.80
2019-02-21T22:02:38.677Z,63.67
2019-02-21T22:06:43.660Z,63.73
2019-02-21T22:10:48.668Z,62.40
2019-02-21T22:14:53.687Z,63.30
2019-02-21T22:18:58.992Z,64.40
2019-02-21T22:23:05.376Z,64.40
2019-02-21T22:27:10.440Z,63.90
2019-02-21T22:31:15.455Z,70.92
2019-02-21T22:35:20.476Z,71.03
2019-02-21T22:39:25.555Z,66.23
2019-02-21T22:43:30.802Z,66.53
2019-02-21T22:47:35.798Z,72.93
2019-02-21T22:51:41.096Z,65.47
2019-02-21T22:55:46.114Z,68.43
2019-02-21T22:59:51.416Z,70.83
2019-02-21T23:04:00.023Z,74.00
2019-02-21T23:08:07.188Z,72.50
2019-02-21T23:12:12.175Z,76.80
2019-02-21T23:16:17.995Z,76.23
2019-02-21T23:20:23.011Z,71.17
2019-02-21T23:24:28.020Z,73.43
2019-02-21T23:28:33.323Z,74.63
2019-02-21T23:32:38.325Z,72.23
2019-02-21T23:36:44.470Z,76.57
2019-02-21T23:40:49.873Z,74.63
2019-02-21T23:44:55.169Z,79.30
2019-02-21T23:49:00.188Z,79.73
2019-02-21T23:53:05.472Z,79.40
2019-02-21T23:57:10.770Z,81.10
